sensor_id;sensor_type;location;lat;lon;timestamp;pressure;altitude;pressure_sealevel;temperature;humidity
40946;BME280;55635;50.264;11.918;2023-04-19T00:02:28;96317.94;;;10.25;94.73
40946;BME280;55635;50.264;11.918;2023-04-19T00:05:09;96316.41;;;10.06;96.03
40946;BME280;55635;50.264;11.918;2023-04-19T00:07:53;96315.78;;;10.28;95.15
40946;BME280;55635;50.264;11.918;2023-04-19T00:10:34;96322.09;;;10.27;94.80
40946;BME280;55635;50.264;11.918;2023-04-19T00:13:19;96317.28;;;10.31;94.76
40946;BME280;55635;50.264;11.918;2023-04-19T00:16:04;96297.91;;;10.22;94.99
40946;BME280;55635;50.264;11.918;2023-04-19T00:18:47;96306.16;;;10.11;95.91
40946;BME280;55635;50.264;11.918;2023-04-19T00:21:28;96295.25;;;10.22;94.96
40946;BME280;55635;50.264;11.918;2023-04-19T00:24:11;96305.22;;;10.20;95.25
40946;BME280;55635;50.264;11.918;2023-04-19T00:26:52;96294.78;;;10.27;95.22
40946;BME280;55635;50.264;11.918;2023-04-19T00:29:35;96303.19;;;10.30;95.51
40946;BME280;55635;50.264;11.918;2023-04-19T00:32:16;96298.75;;;10.23;96.34
40946;BME280;55635;50.264;11.918;2023-04-19T00:34:57;96299.56;;;10.23;95.80
40946;BME280;55635;50.264;11.918;2023-04-19T00:37:38;96294.59;;;10.20;96.07
40946;BME280;55635;50.264;11.918;2023-04-19T00:40:19;96284.81;;;10.29;95.55
40946;BME280;55635;50.264;11.918;2023-04-19T00:43:00;96281.69;;;10.25;95.75
40946;BME280;55635;50.264;11.918;2023-04-19T00:45:40;96282.00;;;10.38;94.94
40946;BME280;55635;50.264;11.918;2023-04-19T00:48:22;96272.72;;;10.18;95.27
40946;BME280;55635;50.264;11.918;2023-04-19T00:51:03;96286.78;;;10.43;94.97
40946;BME280;55635;50.264;11.918;2023-04-19T00:53:45;96277.72;;;10.29;95.17
40946;BME280;55635;50.264;11.918;2023-04-19T00:56:26;96278.53;;;10.30;95.14
40946;BME280;55635;50.264;11.918;2023-04-19T00:59:07;96278.88;;;10.27;95.23
40946;BME280;55635;50.264;11.918;2023-04-19T01:01:51;96272.91;;;10.33;94.78
40946;BME280;55635;50.264;11.918;2023-04-19T01:04:32;96263.97;;;10.26;95.24
40946;BME280;55635;50.264;11.918;2023-04-19T01:07:13;96269.41;;;10.32;94.97
40946;BME280;55635;50.264;11.918;2023-04-19T01:09:56;96274.38;;;10.44;94.64
40946;BME280;55635;50.264;11.918;2023-04-19T01:12:37;96267.75;;;10.40;94.29
40946;BME280;55635;50.264;11.918;2023-04-19T01:15:18;96268.56;;;10.40;94.37
40946;BME280;55635;50.264;11.918;2023-04-19T01:18:03;96271.91;;;10.42;94.07
40946;BME280;55635;50.264;11.918;2023-04-19T01:20:44;96264.78;;;10.34;94.25
40946;BME280;55635;50.264;11.918;2023-04-19T01:23:25;96256.50;;;10.29;94.75
40946;BME280;55635;50.264;11.918;2023-04-19T01:26:06;96261.63;;;10.39;94.47
40946;BME280;55635;50.264;11.918;2023-04-19T01:28:47;96254.34;;;10.25;95.05
40946;BME280;55635;50.264;11.918;2023-04-19T01:31:30;96253.84;;;10.21;95.28
40946;BME280;55635;50.264;11.918;2023-04-19T01:34:11;96254.69;;;10.22;95.33
40946;BME280;55635;50.264;11.918;2023-04-19T01:36:52;96243.56;;;10.10;95.94
40946;BME280;55635;50.264;11.918;2023-04-19T01:39:36;96248.22;;;10.08;96.57
40946;BME280;55635;50.264;11.918;2023-04-19T01:42:17;96241.91;;;10.09;96.31
40946;BME280;55635;50.264;11.918;2023-04-19T01:45:00;96248.56;;;10.13;96.36
40946;BME280;55635;50.264;11.918;2023-04-19T01:47:41;96236.97;;;10.14;96.23
40946;BME280;55635;50.264;11.918;2023-04-19T01:50:22;96234.97;;;9.92;97.26
40946;BME280;55635;50.264;11.918;2023-04-19T01:53:04;96246.22;;;10.10;96.58
40946;BME280;55635;50.264;11.918;2023-04-19T01:55:46;96232.31;;;10.00;96.71
40946;BME280;55635;50.264;11.918;2023-04-19T01:58:27;96236.78;;;9.83;97.33
40946;BME280;55635;50.264;11.918;2023-04-19T02:01:08;96241.59;;;9.96;97.53
40946;BME280;55635;50.264;11.918;2023-04-19T02:03:52;96214.13;;;9.81;97.75
40946;BME280;55635;50.264;11.918;2023-04-19T02:06:33;96212.94;;;9.92;96.94
40946;BME280;55635;50.264;11.918;2023-04-19T02:09:18;96227.53;;;9.96;97.59
40946;BME280;55635;50.264;11.918;2023-04-19T02:12:00;96207.66;;;9.83;97.08
40946;BME280;55635;50.264;11.918;2023-04-19T02:14:41;96208.00;;;9.80;97.42
40946;BME280;55635;50.264;11.918;2023-04-19T02:17:23;96190.94;;;9.67;97.64
40946;BME280;55635;50.264;11.918;2023-04-19T02:20:06;96200.03;;;9.56;98.08
40946;BME280;55635;50.264;11.918;2023-04-19T02:22:50;96208.63;;;9.58;98.62
40946;BME280;55635;50.264;11.918;2023-04-19T02:25:31;96210.13;;;9.53;98.65
40946;BME280;55635;50.264;11.918;2023-04-19T02:28:12;96206.47;;;9.38;99.35
40946;BME280;55635;50.264;11.918;2023-04-19T02:30:53;96188.28;;;9.35;99.00
40946;BME280;55635;50.264;11.918;2023-04-19T02:33:36;96208.47;;;9.52;99.20
40946;BME280;55635;50.264;11.918;2023-04-19T02:36:19;96199.03;;;9.49;99.07
40946;BME280;55635;50.264;11.918;2023-04-19T02:39:00;96212.78;;;9.61;98.81
40946;BME280;55635;50.264;11.918;2023-04-19T02:41:42;96209.78;;;9.64;98.28
40946;BME280;55635;50.264;11.918;2023-04-19T02:44:23;96179.00;;;9.55;97.81
40946;BME280;55635;50.264;11.918;2023-04-19T02:47:04;96187.47;;;9.50;98.44
40946;BME280;55635;50.264;11.918;2023-04-19T02:49:46;96203.00;;;9.61;98.05
40946;BME280;55635;50.264;11.918;2023-04-19T02:52:51;96186.47;;;9.67;97.42
40946;BME280;55635;50.264;11.918;2023-04-19T02:55:38;96189.13;;;9.67;97.99
40946;BME280;55635;50.264;11.918;2023-04-19T02:58:28;96186.97;;;9.55;97.99
40946;BME280;55635;50.264;11.918;2023-04-19T03:01:15;96177.69;;;9.35;98.13
40946;BME280;55635;50.264;11.918;2023-04-19T03:03:57;96184.00;;;9.50;97.93
40946;BME280;55635;50.264;11.918;2023-04-19T03:06:38;96175.38;;;9.40;98.03
40946;BME280;55635;50.264;11.918;2023-04-19T03:09:19;96170.09;;;9.48;97.73
40946;BME280;55635;50.264;11.918;2023-04-19T03:12:00;96176.03;;;9.50;97.45
40946;BME280;55635;50.264;11.918;2023-04-19T03:14:41;96175.72;;;9.53;96.93
40946;BME280;55635;50.264;11.918;2023-04-19T03:17:25;96167.13;;;9.51;97.39
40946;BME280;55635;50.264;11.918;2023-04-19T03:20:07;96168.75;;;9.27;97.06
40946;BME280;55635;50.264;11.918;2023-04-19T03:22:52;96173.06;;;9.37;97.44
40946;BME280;55635;50.264;11.918;2023-04-19T03:25:34;96171.91;;;9.55;96.65
40946;BME280;55635;50.264;11.918;2023-04-19T03:28:30;96163.31;;;9.29;97.56
40946;BME280;55635;50.264;11.918;2023-04-19T03:31:49;96161.00;;;9.50;96.82
40946;BME280;55635;50.264;11.918;2023-04-19T03:34:30;96162.63;;;9.27;97.43
40946;BME280;55635;50.264;11.918;2023-04-19T03:37:12;96163.13;;;9.30;97.39
40946;BME280;55635;50.264;11.918;2023-04-19T03:39:54;96157.66;;;9.48;96.75
40946;BME280;55635;50.264;11.918;2023-04-19T03:42:41;96153.03;;;9.34;96.35
40946;BME280;55635;50.264;11.918;2023-04-19T03:45:32;96159.81;;;9.37;96.94
40946;BME280;55635;50.264;11.918;2023-04-19T03:48:13;96145.06;;;9.18;97.26
40946;BME280;55635;50.264;11.918;2023-04-19T03:50:54;96154.00;;;9.09;97.60
40946;BME280;55635;50.264;11.918;2023-04-19T03:53:35;96142.22;;;8.87;98.16
40946;BME280;55635;50.264;11.918;2023-04-19T03:56:17;96152.31;;;8.92;97.02
40946;BME280;55635;50.264;11.918;2023-04-19T03:59:02;96136.78;;;8.89;96.74
40946;BME280;55635;50.264;11.918;2023-04-19T04:01:45;96154.50;;;9.04;96.59
40946;BME280;55635;50.264;11.918;2023-04-19T04:04:29;96154.47;;;8.96;96.99
40946;BME280;55635;50.264;11.918;2023-04-19T04:07:10;96147.72;;;9.10;96.32
40946;BME280;55635;50.264;11.918;2023-04-19T04:09:53;96143.38;;;8.85;96.93
40946;BME280;55635;50.264;11.918;2023-04-19T04:13:00;96157.16;;;8.62;96.60
40946;BME280;55635;50.264;11.918;2023-04-19T04:15:51;96138.44;;;8.48;97.24
40946;BME280;55635;50.264;11.918;2023-04-19T04:18:34;96153.00;;;8.44;97.21
40946;BME280;55635;50.264;11.918;2023-04-19T04:21:18;96136.56;;;8.32;97.26
40946;BME280;55635;50.264;11.918;2023-04-19T04:24:01;96151.06;;;8.62;96.44
40946;BME280;55635;50.264;11.918;2023-04-19T04:27:18;96156.31;;;8.54;96.70
40946;BME280;55635;50.264;11.918;2023-04-19T04:30:03;96146.81;;;8.35;96.94
40946;BME280;55635;50.264;11.918;2023-04-19T04:32:45;96155.78;;;8.42;97.82
40946;BME280;55635;50.264;11.918;2023-04-19T04:35:27;96159.97;;;8.61;96.66
40946;BME280;55635;50.264;11.918;2023-04-19T04:38:19;96149.31;;;8.37;97.43
40946;BME280;55635;50.264;11.918;2023-04-19T04:41:00;96159.28;;;8.51;97.04
40946;BME280;55635;50.264;11.918;2023-04-19T04:43:41;96144.25;;;8.51;97.22
40946;BME280;55635;50.264;11.918;2023-04-19T04:46:22;96152.81;;;8.45;97.67
40946;BME280;55635;50.264;11.918;2023-04-19T04:49:05;96153.94;;;8.35;97.65
40946;BME280;55635;50.264;11.918;2023-04-19T04:51:47;96145.84;;;8.36;97.19
40946;BME280;55635;50.264;11.918;2023-04-19T04:54:28;96142.25;;;8.19;97.88
40946;BME280;55635;50.264;11.918;2023-04-19T04:57:11;96135.91;;;8.04;98.20
40946;BME280;55635;50.264;11.918;2023-04-19T04:59:54;96129.19;;;8.10;97.85
40946;BME280;55635;50.264;11.918;2023-04-19T05:02:38;96159.13;;;8.27;97.17
40946;BME280;55635;50.264;11.918;2023-04-19T05:05:19;96154.09;;;8.41;96.48
40946;BME280;55635;50.264;11.918;2023-04-19T05:08:00;96159.09;;;8.18;96.70
40946;BME280;55635;50.264;11.918;2023-04-19T05:10:42;96166.13;;;8.28;96.74
40946;BME280;55635;50.264;11.918;2023-04-19T05:13:26;96144.50;;;8.06;96.43
40946;BME280;55635;50.264;11.918;2023-04-19T05:16:08;96164.38;;;8.18;95.29
40946;BME280;55635;50.264;11.918;2023-04-19T05:18:49;96163.34;;;8.11;94.84
40946;BME280;55635;50.264;11.918;2023-04-19T05:21:33;96143.69;;;8.06;94.15
40946;BME280;55635;50.264;11.918;2023-04-19T05:24:16;96157.03;;;8.04;94.05
40946;BME280;55635;50.264;11.918;2023-04-19T05:26:58;96165.31;;;8.09;93.95
40946;BME280;55635;50.264;11.918;2023-04-19T05:29:40;96167.09;;;8.01;93.57
40946;BME280;55635;50.264;11.918;2023-04-19T05:32:21;96164.06;;;7.96;93.57
40946;BME280;55635;50.264;11.918;2023-04-19T05:35:08;96148.72;;;7.91;93.86
40946;BME280;55635;50.264;11.918;2023-04-19T05:37:50;96160.88;;;7.84;94.58
40946;BME280;55635;50.264;11.918;2023-04-19T05:40:31;96127.44;;;7.67;94.47
40946;BME280;55635;50.264;11.918;2023-04-19T05:43:13;96149.53;;;7.66;94.53
40946;BME280;55635;50.264;11.918;2023-04-19T05:45:56;96131.09;;;7.74;94.20
40946;BME280;55635;50.264;11.918;2023-04-19T05:48:37;96129.19;;;7.84;93.54
40946;BME280;55635;50.264;11.918;2023-04-19T05:51:45;96131.63;;;7.78;93.69
40946;BME280;55635;50.264;11.918;2023-04-19T05:55:06;96130.69;;;7.61;95.19
40946;BME280;55635;50.264;11.918;2023-04-19T05:57:54;96141.00;;;7.72;94.87
40946;BME280;55635;50.264;11.918;2023-04-19T06:00:38;96129.59;;;7.46;95.05
40946;BME280;55635;50.264;11.918;2023-04-19T06:03:25;96137.91;;;7.59;94.91
40946;BME280;55635;50.264;11.918;2023-04-19T06:06:06;96127.75;;;7.46;95.34
40946;BME280;55635;50.264;11.918;2023-04-19T06:08:50;96139.59;;;7.60;94.81
40946;BME280;55635;50.264;11.918;2023-04-19T06:11:34;96126.44;;;7.68;93.98
40946;BME280;55635;50.264;11.918;2023-04-19T06:14:15;96135.41;;;7.75;93.18
40946;BME280;55635;50.264;11.918;2023-04-19T06:16:58;96132.91;;;7.48;93.55
40946;BME280;55635;50.264;11.918;2023-04-19T06:19:39;96127.41;;;7.41;94.19
40946;BME280;55635;50.264;11.918;2023-04-19T06:22:21;96120.59;;;7.31;94.74
40946;BME280;55635;50.264;11.918;2023-04-19T06:25:03;96122.16;;;7.24;95.33
40946;BME280;55635;50.264;11.918;2023-04-19T06:27:44;96110.63;;;7.25;95.58
40946;BME280;55635;50.264;11.918;2023-04-19T06:30:25;96122.91;;;7.16;96.14
40946;BME280;55635;50.264;11.918;2023-04-19T06:33:09;96131.13;;;7.13;96.37
40946;BME280;55635;50.264;11.918;2023-04-19T06:35:50;96117.50;;;7.18;96.13
40946;BME280;55635;50.264;11.918;2023-04-19T06:38:33;96130.38;;;7.03;96.83
40946;BME280;55635;50.264;11.918;2023-04-19T06:41:17;96136.69;;;6.92;97.11
40946;BME280;55635;50.264;11.918;2023-04-19T06:43:58;96131.94;;;7.13;96.45
40946;BME280;55635;50.264;11.918;2023-04-19T06:46:41;96136.53;;;6.76;97.56
40946;BME280;55635;50.264;11.918;2023-04-19T06:49:22;96121.25;;;6.97;97.10
40946;BME280;55635;50.264;11.918;2023-04-19T06:52:04;96123.75;;;6.81;97.89
40946;BME280;55635;50.264;11.918;2023-04-19T06:54:49;96135.44;;;6.96;97.39
40946;BME280;55635;50.264;11.918;2023-04-19T06:57:32;96133.88;;;6.76;97.21
40946;BME280;55635;50.264;11.918;2023-04-19T07:00:16;96135.03;;;6.91;96.54
40946;BME280;55635;50.264;11.918;2023-04-19T07:02:57;96125.63;;;6.89;95.84
40946;BME280;55635;50.264;11.918;2023-04-19T07:05:40;96138.44;;;6.84;94.78
40946;BME280;55635;50.264;11.918;2023-04-19T07:08:23;96117.72;;;6.71;95.29
40946;BME280;55635;50.264;11.918;2023-04-19T07:11:04;96126.84;;;6.49;94.98
40946;BME280;55635;50.264;11.918;2023-04-19T07:13:45;96141.31;;;6.90;95.05
40946;BME280;55635;50.264;11.918;2023-04-19T07:16:27;96139.75;;;6.70;95.39
40946;BME280;55635;50.264;11.918;2023-04-19T07:19:08;96134.13;;;6.83;94.35
40946;BME280;55635;50.264;11.918;2023-04-19T07:21:50;96134.78;;;6.67;94.57
40946;BME280;55635;50.264;11.918;2023-04-19T07:24:31;96129.13;;;6.62;94.82
40946;BME280;55635;50.264;11.918;2023-04-19T07:27:11;96131.28;;;6.49;94.45
40946;BME280;55635;50.264;11.918;2023-04-19T07:29:54;96129.97;;;6.63;94.06
40946;BME280;55635;50.264;11.918;2023-04-19T07:32:35;96144.41;;;6.58;93.89
40946;BME280;55635;50.264;11.918;2023-04-19T07:35:16;96145.53;;;6.56;94.34
40946;BME280;55635;50.264;11.918;2023-04-19T07:37:57;96141.75;;;6.41;94.05
40946;BME280;55635;50.264;11.918;2023-04-19T07:40:38;96141.13;;;6.29;94.18
40946;BME280;55635;50.264;11.918;2023-04-19T07:43:24;96133.91;;;6.49;93.51
40946;BME280;55635;50.264;11.918;2023-04-19T07:46:11;96141.50;;;6.34;92.67
40946;BME280;55635;50.264;11.918;2023-04-19T07:48:53;96138.19;;;6.32;91.57
40946;BME280;55635;50.264;11.918;2023-04-19T07:51:34;96140.28;;;6.56;91.08
40946;BME280;55635;50.264;11.918;2023-04-19T07:54:18;96142.56;;;6.69;90.07
40946;BME280;55635;50.264;11.918;2023-04-19T07:57:00;96145.63;;;6.37;90.91
40946;BME280;55635;50.264;11.918;2023-04-19T07:59:41;96131.72;;;6.72;89.88
40946;BME280;55635;50.264;11.918;2023-04-19T08:02:24;96138.00;;;6.61;89.02
40946;BME280;55635;50.264;11.918;2023-04-19T08:05:06;96145.25;;;6.59;88.28
40946;BME280;55635;50.264;11.918;2023-04-19T08:07:51;96137.63;;;6.56;88.80
40946;BME280;55635;50.264;11.918;2023-04-19T08:10:32;96131.03;;;6.42;88.24
40946;BME280;55635;50.264;11.918;2023-04-19T08:13:14;96132.56;;;6.72;88.83
40946;BME280;55635;50.264;11.918;2023-04-19T08:15:56;96142.63;;;6.77;88.97
40946;BME280;55635;50.264;11.918;2023-04-19T08:18:37;96137.00;;;6.89;86.85
40946;BME280;55635;50.264;11.918;2023-04-19T08:21:18;96117.34;;;7.01;85.53
40946;BME280;55635;50.264;11.918;2023-04-19T08:23:59;96127.78;;;7.29;85.25
40946;BME280;55635;50.264;11.918;2023-04-19T08:26:40;96122.22;;;7.32;85.05
40946;BME280;55635;50.264;11.918;2023-04-19T08:29:23;96132.91;;;7.48;85.29
40946;BME280;55635;50.264;11.918;2023-04-19T08:32:05;96120.63;;;7.64;85.32
40946;BME280;55635;50.264;11.918;2023-04-19T08:34:46;96119.34;;;7.68;83.20
40946;BME280;55635;50.264;11.918;2023-04-19T08:37:27;96111.06;;;7.89;81.96
40946;BME280;55635;50.264;11.918;2023-04-19T08:40:09;96127.63;;;7.99;81.70
40946;BME280;55635;50.264;11.918;2023-04-19T08:42:50;96122.25;;;7.83;80.07
40946;BME280;55635;50.264;11.918;2023-04-19T08:45:32;96103.31;;;7.88;81.25
40946;BME280;55635;50.264;11.918;2023-04-19T08:48:15;96118.28;;;8.39;79.79
40946;BME280;55635;50.264;11.918;2023-04-19T08:50:57;96113.69;;;9.47;79.38
40946;BME280;55635;50.264;11.918;2023-04-19T08:53:39;96094.94;;;9.81;76.84
40946;BME280;55635;50.264;11.918;2023-04-19T08:56:26;96105.38;;;9.66;73.45
40946;BME280;55635;50.264;11.918;2023-04-19T08:59:07;96102.53;;;9.92;72.04
40946;BME280;55635;50.264;11.918;2023-04-19T09:01:48;96103.50;;;9.91;73.17
40946;BME280;55635;50.264;11.918;2023-04-19T09:04:29;96090.25;;;10.54;70.40
40946;BME280;55635;50.264;11.918;2023-04-19T09:07:26;96078.53;;;11.25;69.30
40946;BME280;55635;50.264;11.918;2023-04-19T09:10:13;96077.22;;;11.81;68.39
40946;BME280;55635;50.264;11.918;2023-04-19T09:13:04;96080.91;;;12.38;68.06
40946;BME280;55635;50.264;11.918;2023-04-19T09:16:26;96070.19;;;12.46;63.18
40946;BME280;55635;50.264;11.918;2023-04-19T09:19:10;96073.47;;;11.90;64.72
40946;BME280;55635;50.264;11.918;2023-04-19T09:21:52;96070.56;;;11.85;65.36
40946;BME280;55635;50.264;11.918;2023-04-19T09:24:37;96050.84;;;12.38;62.97
40946;BME280;55635;50.264;11.918;2023-04-19T09:27:35;96059.56;;;12.17;61.86
40946;BME280;55635;50.264;11.918;2023-04-19T09:30:21;96047.38;;;12.37;61.79
40946;BME280;55635;50.264;11.918;2023-04-19T09:33:06;96040.25;;;11.57;61.94
40946;BME280;55635;50.264;11.918;2023-04-19T09:35:47;96040.72;;;12.48;61.31
40946;BME280;55635;50.264;11.918;2023-04-19T09:38:29;96037.81;;;12.79;61.03
40946;BME280;55635;50.264;11.918;2023-04-19T09:41:10;96052.25;;;12.70;59.14
40946;BME280;55635;50.264;11.918;2023-04-19T09:43:51;96052.94;;;12.42;57.98
40946;BME280;55635;50.264;11.918;2023-04-19T09:46:37;96022.69;;;12.43;55.55
40946;BME280;55635;50.264;11.918;2023-04-19T09:49:20;96040.09;;;13.03;55.68
40946;BME280;55635;50.264;11.918;2023-04-19T09:52:04;96044.44;;;13.04;55.44
40946;BME280;55635;50.264;11.918;2023-04-19T09:54:45;96035.50;;;13.88;53.87
40946;BME280;55635;50.264;11.918;2023-04-19T09:57:26;96035.22;;;14.04;50.66
40946;BME280;55635;50.264;11.918;2023-04-19T10:00:08;96047.19;;;14.15;50.10
40946;BME280;55635;50.264;11.918;2023-04-19T10:02:57;96039.50;;;13.99;50.86
40946;BME280;55635;50.264;11.918;2023-04-19T10:05:40;96035.22;;;14.04;53.63
40946;BME280;55635;50.264;11.918;2023-04-19T10:08:30;96026.41;;;13.70;50.02
40946;BME280;55635;50.264;11.918;2023-04-19T10:11:12;96026.78;;;14.35;49.22
40946;BME280;55635;50.264;11.918;2023-04-19T10:13:57;96031.41;;;14.54;47.09
40946;BME280;55635;50.264;11.918;2023-04-19T10:16:41;96019.72;;;15.55;48.20
40946;BME280;55635;50.264;11.918;2023-04-19T10:19:25;96019.53;;;15.50;45.42
40946;BME280;55635;50.264;11.918;2023-04-19T10:22:07;96030.41;;;15.68;46.10
40946;BME280;55635;50.264;11.918;2023-04-19T10:25:15;96024.84;;;15.83;46.46
40946;BME280;55635;50.264;11.918;2023-04-19T10:27:57;96021.72;;;15.99;44.39
40946;BME280;55635;50.264;11.918;2023-04-19T10:31:04;96017.47;;;16.43;44.27
40946;BME280;55635;50.264;11.918;2023-04-19T10:33:47;96019.06;;;15.93;43.06
40946;BME280;55635;50.264;11.918;2023-04-19T10:36:28;96019.88;;;15.34;43.63
40946;BME280;55635;50.264;11.918;2023-04-19T10:39:42;96004.91;;;15.59;43.75
40946;BME280;55635;50.264;11.918;2023-04-19T10:42:24;95990.31;;;15.68;45.67
40946;BME280;55635;50.264;11.918;2023-04-19T10:45:33;96006.53;;;15.87;44.04
40946;BME280;55635;50.264;11.918;2023-04-19T10:51:22;96007.88;;;16.79;42.89
40946;BME280;55635;50.264;11.918;2023-04-19T10:54:27;96015.16;;;15.36;42.44
40946;BME280;55635;50.264;11.918;2023-04-19T10:57:10;96008.66;;;14.71;45.73
40946;BME280;55635;50.264;11.918;2023-04-19T11:00:19;95980.59;;;15.87;42.35
40946;BME280;55635;50.264;11.918;2023-04-19T11:06:24;95990.69;;;15.85;43.77
40946;BME280;55635;50.264;11.918;2023-04-19T11:09:07;95979.72;;;16.13;42.69
40946;BME280;55635;50.264;11.918;2023-04-19T11:11:53;95982.91;;;16.54;42.05
40946;BME280;55635;50.264;11.918;2023-04-19T11:14:42;95976.53;;;16.86;40.92
40946;BME280;55635;50.264;11.918;2023-04-19T11:17:25;95979.16;;;15.85;40.86
40946;BME280;55635;50.264;11.918;2023-04-19T11:20:11;95984.91;;;15.95;43.37
40946;BME280;55635;50.264;11.918;2023-04-19T11:22:53;95968.25;;;15.93;41.83
40946;BME280;55635;50.264;11.918;2023-04-19T11:25:44;95965.88;;;16.73;42.54
40946;BME280;55635;50.264;11.918;2023-04-19T11:28:26;95959.19;;;16.89;39.34
40946;BME280;55635;50.264;11.918;2023-04-19T11:31:07;95963.97;;;16.36;42.56
40946;BME280;55635;50.264;11.918;2023-04-19T11:33:48;95960.81;;;16.08;43.13
40946;BME280;55635;50.264;11.918;2023-04-19T11:36:31;95955.56;;;15.55;41.89
40946;BME280;55635;50.264;11.918;2023-04-19T11:39:16;95952.03;;;15.02;43.04
40946;BME280;55635;50.264;11.918;2023-04-19T11:41:59;95950.59;;;15.00;42.39
40946;BME280;55635;50.264;11.918;2023-04-19T11:44:48;95921.00;;;14.82;43.06
40946;BME280;55635;50.264;11.918;2023-04-19T11:47:31;95925.22;;;13.89;45.07
40946;BME280;55635;50.264;11.918;2023-04-19T11:50:39;95949.88;;;14.45;43.95
40946;BME280;55635;50.264;11.918;2023-04-19T11:53:22;95952.94;;;14.36;44.52
40946;BME280;55635;50.264;11.918;2023-04-19T11:56:05;95946.84;;;14.61;46.30
40946;BME280;55635;50.264;11.918;2023-04-19T11:58:47;95920.38;;;15.45;45.14
40946;BME280;55635;50.264;11.918;2023-04-19T12:01:28;95933.84;;;16.54;43.63
40946;BME280;55635;50.264;11.918;2023-04-19T12:04:12;95925.59;;;16.11;42.78
40946;BME280;55635;50.264;11.918;2023-04-19T12:06:58;95926.59;;;15.52;41.25
40946;BME280;55635;50.264;11.918;2023-04-19T12:09:39;95925.09;;;16.27;41.86
40946;BME280;55635;50.264;11.918;2023-04-19T12:12:33;95941.78;;;16.29;40.41
40946;BME280;55635;50.264;11.918;2023-04-19T12:15:14;95942.44;;;16.18;42.82
40946;BME280;55635;50.264;11.918;2023-04-19T12:18:00;95920.22;;;15.53;41.47
40946;BME280;55635;50.264;11.918;2023-04-19T12:20:47;95942.78;;;14.79;42.97
40946;BME280;55635;50.264;11.918;2023-04-19T12:23:30;95948.25;;;14.51;42.60
40946;BME280;55635;50.264;11.918;2023-04-19T12:26:11;95934.25;;;13.95;44.06
40946;BME280;55635;50.264;11.918;2023-04-19T12:28:54;95918.59;;;14.26;45.12
40946;BME280;55635;50.264;11.918;2023-04-19T12:31:35;95916.88;;;15.38;44.58
40946;BME280;55635;50.264;11.918;2023-04-19T12:34:15;95901.28;;;14.89;43.09
40946;BME280;55635;50.264;11.918;2023-04-19T12:36:56;95911.38;;;15.00;43.57
40946;BME280;55635;50.264;11.918;2023-04-19T12:39:37;95897.69;;;14.30;43.35
40946;BME280;55635;50.264;11.918;2023-04-19T12:42:18;95919.94;;;14.02;45.01
40946;BME280;55635;50.264;11.918;2023-04-19T12:44:59;95921.25;;;13.72;45.04
40946;BME280;55635;50.264;11.918;2023-04-19T12:47:42;95922.72;;;13.47;44.71
40946;BME280;55635;50.264;11.918;2023-04-19T12:50:23;95900.50;;;13.05;45.45
40946;BME280;55635;50.264;11.918;2023-04-19T12:53:04;95915.91;;;13.10;45.83
40946;BME280;55635;50.264;11.918;2023-04-19T12:55:49;95920.97;;;13.05;45.17
40946;BME280;55635;50.264;11.918;2023-04-19T12:58:31;95904.56;;;13.01;44.90
40946;BME280;55635;50.264;11.918;2023-04-19T13:01:36;95916.59;;;12.97;46.58
40946;BME280;55635;50.264;11.918;2023-04-19T13:04:17;95897.56;;;12.51;47.12
40946;BME280;55635;50.264;11.918;2023-04-19T13:06:58;95926.69;;;12.81;47.24
40946;BME280;55635;50.264;11.918;2023-04-19T13:09:39;95900.34;;;12.43;47.04
40946;BME280;55635;50.264;11.918;2023-04-19T13:12:21;95920.50;;;12.52;47.53
40946;BME280;55635;50.264;11.918;2023-04-19T13:15:02;95910.66;;;12.74;47.71
40946;BME280;55635;50.264;11.918;2023-04-19T13:17:43;95910.59;;;12.68;47.62
40946;BME280;55635;50.264;11.918;2023-04-19T13:20:25;95896.94;;;12.49;47.88
40946;BME280;55635;50.264;11.918;2023-04-19T13:23:07;95906.72;;;12.28;47.26
40946;BME280;55635;50.264;11.918;2023-04-19T13:25:48;95889.94;;;12.27;47.54
40946;BME280;55635;50.264;11.918;2023-04-19T13:28:30;95891.41;;;12.30;47.67
40946;BME280;55635;50.264;11.918;2023-04-19T13:31:11;95894.97;;;12.37;47.70
40946;BME280;55635;50.264;11.918;2023-04-19T13:33:52;95874.09;;;13.79;46.90
40946;BME280;55635;50.264;11.918;2023-04-19T13:36:33;95883.19;;;13.91;46.42
40946;BME280;55635;50.264;11.918;2023-04-19T13:39:14;95876.19;;;13.43;46.61
40946;BME280;55635;50.264;11.918;2023-04-19T13:41:58;95871.81;;;13.29;45.37
40946;BME280;55635;50.264;11.918;2023-04-19T13:44:39;95878.38;;;13.05;46.13
40946;BME280;55635;50.264;11.918;2023-04-19T13:47:22;95843.13;;;12.75;45.10
40946;BME280;55635;50.264;11.918;2023-04-19T13:50:03;95868.78;;;12.83;46.34
40946;BME280;55635;50.264;11.918;2023-04-19T13:52:44;95878.09;;;12.72;46.07
40946;BME280;55635;50.264;11.918;2023-04-19T13:55:26;95877.41;;;12.42;46.98
40946;BME280;55635;50.264;11.918;2023-04-19T13:58:10;95851.91;;;12.48;46.10
40946;BME280;55635;50.264;11.918;2023-04-19T14:00:51;95831.69;;;12.32;46.58
40946;BME280;55635;50.264;11.918;2023-04-19T14:03:33;95870.16;;;12.79;47.56
40946;BME280;55635;50.264;11.918;2023-04-19T14:06:14;95860.50;;;12.71;46.90
40946;BME280;55635;50.264;11.918;2023-04-19T14:09:21;95869.06;;;12.94;47.30
40946;BME280;55635;50.264;11.918;2023-04-19T14:12:02;95852.53;;;12.99;47.77
40946;BME280;55635;50.264;11.918;2023-04-19T14:14:44;95866.63;;;12.93;48.86
40946;BME280;55635;50.264;11.918;2023-04-19T14:17:25;95853.88;;;12.39;49.24
40946;BME280;55635;50.264;11.918;2023-04-19T14:20:06;95885.06;;;12.73;49.84
40946;BME280;55635;50.264;11.918;2023-04-19T14:22:47;95874.63;;;12.29;51.22
40946;BME280;55635;50.264;11.918;2023-04-19T14:25:29;95886.28;;;12.28;51.34
40946;BME280;55635;50.264;11.918;2023-04-19T14:28:10;95851.69;;;11.86;51.16
40946;BME280;55635;50.264;11.918;2023-04-19T14:30:52;95872.59;;;12.10;52.37